Flight Track Log - Related Links

Times and Time Zones

All times are in EDT time to prevent confusion due to time zone crossing. See the N357FE flight status page for this flight to view local times or setup timezone preferences in your user account.

Time Position Orientation Groundspeed Altitude Reporting Facility
EDT Latitude Longitude Course Direction KTS km/h meters Rate Location/Type
Thu 11:29:53 32.7470 -117.2470 285° West 203 377 366  Level FlightAware ADS-B
Thu 11:30:13 32.7540 -117.2740 287° West 223 414 518 549 Climbing FlightAware ADS-B
Thu 11:30:43 32.7610 -117.3180 281° West 254 470 823 528 Climbing FlightAware ADS-B
Thu 11:30:58 32.7580 -117.3270 248° West 257 476 914 671 Climbing FlightAware ADS-B
Thu 11:31:13 32.7460 -117.3460 233° Southwest 257 476 1,158 951 Climbing FlightAware ADS-B
Thu 11:31:23 32.7370 -117.3520 209° Southwest 255 472 1,311 823 Climbing FlightAware ADS-B
Thu 11:31:53 32.7020 -117.3420 166° South 255 472 1,707 658 Climbing FlightAware ADS-B
Thu 11:32:13 32.6910 -117.3220 123° Southeast 264 489 1,859 732 Climbing FlightAware ADS-B
Thu 11:32:38 32.6710 -117.2830 121° Southeast 269 499 2,256 765 Climbing FlightAware ADS-B
Thu 11:33:08 32.6510 -117.2490 125° Southeast 266 492 2,560 488 Climbing FlightAware ADS-B
Thu 11:33:23 32.6480 -117.2300 101° East 272 504 2,621 293 Climbing FlightAware ADS-B
Thu 11:33:33 32.6460 -117.2170 100° East 278 515 2,682 503 Climbing FlightAware ADS-B
Thu 11:34:03 32.6410 -117.1720 98° East 294 544 2,957 497 Climbing FlightAware ADS-B
Thu 11:34:43 32.6300 -117.0990 100° East 325 602 3,261 390 Climbing FlightAware ADS-B
Thu 11:35:18 32.6180 -117.0280 101° East 358 663 3,444 206 Climbing FlightAware ADS-B
Thu 11:36:03 32.6080 -116.9610 100° East 365 676 3,536 58 Climbing FlightAware ADS-B
Thu 11:36:53 32.5960 -116.8770 100° East 365 676 3,536  Level FlightAware ADS-B
Thu 11:37:33 32.5860 -116.8100 100° East 365 676 3,536 775 Level FlightAware ADS-B
Thu 11:38:03 32.6380 -116.6960 62° Northeast 4,968 1,140 Climbing FlightAware ADS-B
Thu 11:38:58 32.6480 -116.5850 84° East 400 740 5,151 116 Climbing FlightAware ADS-B
Thu 11:39:38 32.6550 -116.5110 84° East 400 740 5,151  Level FlightAware ADS-B
Thu 11:40:18 32.6610 -116.4370 84° East 400 740 5,151  Level FlightAware ADS-B
Thu 11:40:58 32.6680 -116.3620 84° East 400 740 5,151  Level FlightAware ADS-B
Thu 11:41:48 32.6760 -116.2700 84° East 400 740 5,151  Level FlightAware ADS-B
Thu 11:42:18 32.6810 -116.2140 84° East 400 740 5,151 1,317 Level FlightAware ADS-B
Thu 11:43:03 32.7056 -115.9886 84° East 466 863 6,797 1,145 Climbing Los Angeles Center
Thu 11:44:05 32.7197 -115.8319 84° East 477 884 7,193 398 Climbing Los Angeles Center
Thu 11:45:07 32.7336 -115.6753 84° East 479 887 7,620 431 Climbing Los Angeles Center
Thu 11:46:08 32.7492 -115.4869 84° East 480 888 8,077 357 Climbing Los Angeles Center
Thu 11:47:10 32.7542 -115.3258 88° East 487 901 8,352 265 Climbing Los Angeles Center
Thu 11:48:12 32.7600 -115.1606 88° East 500 925 8,626 236 Climbing Los Angeles Center
Thu 11:49:14 32.7633 -114.9942 89° East 503 932 8,839 215 Climbing Los Angeles Center
Thu 11:54:43 32.7750 -114.0430 89° East 533 987 10,028 198 Climbing FlightAware ADS-B
Thu 11:55:23 32.7880 -113.9250 83° East 532 985 10,058 22 Climbing FlightAware ADS-B
Thu 11:56:08 32.8110 -113.8080 77° East 532 985 10,058  Level FlightAware ADS-B
Thu 11:56:58 32.8340 -113.6870 77° East 532 985 10,058  Level FlightAware ADS-B
Thu 11:57:38 32.8780 -113.5650 67° East 534 990 10,058  Level FlightAware ADS-B
Thu 11:58:18 32.9050 -113.4540 74° East 539 998 10,058  Level FlightAware ADS-B
Thu 11:58:58 32.9350 -113.3320 74° East 538 996 10,058  Level FlightAware ADS-B
Thu 11:59:43 32.9610 -113.2270 74° East 536 993 10,058  Level FlightAware ADS-B
Thu 12:00:23 32.9990 -113.0710 74° East 535 991 10,058 154 Level FlightAware ADS-B
Thu 12:01:18 33.0370 -112.9130 74° East 530 982 10,302 201 Climbing FlightAware ADS-B
Thu 12:02:03 33.0660 -112.7950 74° East 534 990 10,394 162 Climbing FlightAware ADS-B
Thu 12:02:48 33.0980 -112.6620 74° East 535 991 10,546 194 Climbing FlightAware ADS-B
Thu 12:03:28 33.1260 -112.5430 74° East 535 991 10,668 91 Climbing FlightAware ADS-B
Thu 12:04:08 33.1520 -112.4340 74° East 542 1004 10,668  Level FlightAware ADS-B
Thu 12:04:53 33.1820 -112.3070 74° East 541 1003 10,668  Level FlightAware ADS-B
Thu 12:05:33 33.2090 -112.1920 74° East 543 1006 10,668  Level FlightAware ADS-B
Thu 12:06:18 33.2410 -112.0530 75° East 545 1009 10,668  Level FlightAware ADS-B
Thu 12:06:58 33.2660 -111.9490 74° East 547 1012 10,668  Level FlightAware ADS-B
Thu 12:07:38 33.2950 -111.8230 75° East 549 1017 10,668  Level FlightAware ADS-B
Thu 12:08:23 33.3250 -111.6940 74° East 550 1019 10,668  Level FlightAware ADS-B
Thu 12:09:03 33.3530 -111.5750 74° East 548 1015 10,668  Level FlightAware ADS-B
Thu 12:09:48 33.3840 -111.4370 75° East 550 1019 10,668  Level FlightAware ADS-B
Thu 12:10:28 33.4100 -111.3220 75° East 553 1024 10,668  Level FlightAware ADS-B
Thu 12:11:08 33.4360 -111.2070 75° East 555 1028 10,668  Level FlightAware ADS-B
Thu 12:11:53 33.4670 -111.0700 75° East 557 1032 10,668  Level FlightAware ADS-B
Thu 12:12:33 33.4930 -110.9540 75° East 558 1033 10,668  Level FlightAware ADS-B
Thu 12:13:18 33.5270 -110.8170 73° East 556 1030 10,668  Level FlightAware ADS-B
Thu 12:13:58 33.5600 -110.7210 68° East 553 1024 10,668  Level FlightAware ADS-B
Thu 12:14:38 33.6020 -110.6070 66° East 554 1027 10,668  Level FlightAware ADS-B
Thu 12:15:23 33.6400 -110.5020 66° East 558 1033 10,668  Level FlightAware ADS-B
Thu 12:16:03 33.6820 -110.3830 67° East 558 1033 10,668  Level FlightAware ADS-B
Thu 12:16:43 33.7190 -110.2840 66° East 557 1032 10,668  Level FlightAware ADS-B
Thu 12:17:28 33.7620 -110.1690 66° East 557 1032 10,668  Level FlightAware ADS-B
Thu 12:18:08 33.7980 -110.0720 66° East 557 1032 10,668  Level FlightAware ADS-B
Thu 12:18:48 33.8330 -109.9760 66° East 557 1032 10,668  Level FlightAware ADS-B
Thu 12:19:28 33.8980 -109.7940 67° East 555 1028 10,668  Level FlightAware ADS-B
Thu 12:20:08 33.9360 -109.6890 66° East 554 1027 10,668  Level FlightAware ADS-B
Thu 12:21:03 33.9930 -109.5340 66° East 556 1030 10,668  Level FlightAware ADS-B
Thu 12:21:48 34.0370 -109.4160 66° East 556 1030 10,668  Level FlightAware ADS-B
Thu 12:22:28 34.0720 -109.3190 66° East 556 1030 10,668  Level FlightAware ADS-B
Thu 12:23:18 34.1170 -109.1990 66° East 556 1030 10,668  Level FlightAware ADS-B
Thu 12:23:58 34.1520 -109.1020 66° East 556 1030 10,668  Level FlightAware ADS-B
Thu 12:24:38 34.1880 -109.0060 66° East 556 1030 10,668  Level FlightAware ADS-B
Thu 12:25:18 34.2230 -108.9090 66° East 556 1030 10,668  Level FlightAware ADS-B
Thu 12:25:58 34.2590 -108.8120 66° East 556 1030 10,668  Level FlightAware ADS-B
Thu 12:26:48 34.3030 -108.6910 66° East 556 1030 10,668  Level FlightAware ADS-B
Thu 12:27:28 34.3390 -108.5950 66° East 556 1030 10,668  Level FlightAware ADS-B
Thu 12:28:08 34.3740 -108.4980 66° East 556 1030 10,668  Level FlightAware ADS-B
Thu 12:28:48 34.4100 -108.4010 66° East 556 1030 10,668  Level FlightAware ADS-B
Thu 12:29:28 34.4450 -108.3040 66° East 556 1030 10,668 30 Level FlightAware ADS-B
Thu 12:29:48 34.2630 -107.8700 117° Southeast 568 1053 10,698  Climbing FlightAware ADS-B
Thu 12:30:28 34.2790 -107.7470 81° East 568 1053 10,668 -22 Descending FlightAware ADS-B
Thu 12:31:13 34.2970 -107.6090 81° East 567 1049 10,668  Level FlightAware ADS-B
Thu 12:31:58 34.3160 -107.4650 81° East 568 1053 10,668  Level FlightAware ADS-B
Thu 12:32:38 34.3310 -107.3390 82° East 569 1054 10,668  Level FlightAware ADS-B
Thu 12:33:23 34.3500 -107.1950 81° East 568 1053 10,668  Level FlightAware ADS-B
Thu 12:34:03 34.3660 -107.0690 81° East 569 1054 10,668  Level FlightAware ADS-B
Thu 12:34:43 34.3800 -106.9530 82° East 570 1056 10,668  Level FlightAware ADS-B
Thu 12:35:28 34.3990 -106.8010 81° East 572 1059 10,668  Level FlightAware ADS-B
Thu 12:36:23 34.4220 -106.6360 80° East 572 1059 10,668 17 Level FlightAware ADS-B
Thu 12:37:13 34.4410 -106.4770 82° East 576 1067 10,698  Climbing FlightAware ADS-B
Thu 12:38:03 34.4620 -106.3090 81° East 575 1065 10,668 -20 Descending FlightAware ADS-B
Thu 12:38:43 34.4780 -106.1870 81° East 581 1077 10,668  Level FlightAware ADS-B
Thu 12:39:23 34.4940 -106.0620 81° East 579 1072 10,668  Level FlightAware ADS-B
Thu 12:40:08 34.5130 -105.9110 81° East 579 1072 10,668  Level FlightAware ADS-B
Thu 12:40:48 34.5290 -105.7800 82° East 575 1065 10,668  Level FlightAware ADS-B
Thu 12:41:33 34.5460 -105.6390 82° East 577 1069 10,668  Level FlightAware ADS-B
Thu 12:42:13 34.5610 -105.5260 81° East 577 1069 10,668  Level FlightAware ADS-B
Thu 12:42:53 34.5750 -105.4170 81° East 577 1069 10,668  Level FlightAware ADS-B
Thu 12:43:33 34.5900 -105.3080 80° East 577 1069 10,668  Level FlightAware ADS-B
Thu 12:44:13 34.6040 -105.1990 81° East 577 1069 10,668  Level FlightAware ADS-B
Thu 12:44:53 34.6180 -105.0900 81° East 577 1069 10,668  Level FlightAware ADS-B
Thu 12:45:43 34.6360 -104.9540 81° East 577 1069 10,668  Level FlightAware ADS-B
Thu 12:46:23 34.6500 -104.8450 81° East 577 1069 10,668  Level FlightAware ADS-B
Thu 12:47:03 34.6640 -104.7360 81° East 577 1069 10,668  Level FlightAware ADS-B
Thu 12:47:43 34.6780 -104.6270 81° East 577 1069 10,668  Level FlightAware ADS-B
Thu 12:48:23 34.6930 -104.5180 80° East 577 1069 10,668  Level FlightAware ADS-B
Thu 12:49:13 34.7100 -104.3820 81° East 577 1069 10,668  Level FlightAware ADS-B
Thu 12:49:53 34.7240 -104.2730 81° East 577 1069 10,668  Level FlightAware ADS-B
Thu 12:50:33 34.7390 -104.1640 80° East 577 1069 10,668  Level FlightAware ADS-B
Thu 12:51:13 34.7530 -104.0550 81° East 577 1069 10,668  Level FlightAware ADS-B
Thu 12:51:38 34.7653 -103.7158 81° East 582 1078 10,668  Level Albuquerque Center
Thu 12:52:40 34.7864 -103.5211 82° East 581 1077 10,668  Level Albuquerque Center
Thu 12:53:42 34.8089 -103.2925 83° East 581 1077 10,668  Level Albuquerque Center
Thu 12:54:44 34.8306 -103.0972 82° East 581 1077 10,668  Level Albuquerque Center
Thu 12:55:46 34.8483 -102.8997 84° East 582 1078 10,668  Level Albuquerque Center
Thu 12:56:48 34.8689 -102.7036 83° East 581 1077 10,668  Level Albuquerque Center
Thu 12:57:50 34.8867 -102.5128 83° East 581 1077 10,668  Level Albuquerque Center
Thu 12:58:52 34.9047 -102.3164 84° East 584 1081 10,668 15 Level Albuquerque Center
Thu 12:59:54 34.9267 -102.0811 83° East 586 1085 10,698  Climbing Albuquerque Center
Thu 13:00:56 34.9447 -101.8847 84° East 590 1093 10,668 -15 Descending Albuquerque Center
Thu 13:01:58 34.9628 -101.6892 84° East 591 1094 10,668  Level Albuquerque Center
Thu 13:03:00 34.9803 -101.5006 83° East 591 1094 10,668  Level Albuquerque Center
Thu 13:04:02 34.9994 -101.2594 84° East 590 1093 10,668  Level Albuquerque Center
Thu 13:05:04 35.0156 -101.0625 84° East 589 1091 10,668  Level Albuquerque Center
Thu 13:06:06 35.0322 -100.8667 84° East 587 1088 10,668  Level Albuquerque Center
Thu 13:07:08 35.0494 -100.6689 84° East 587 1088 10,668  Level Albuquerque Center
Thu 13:08:10 35.0656 -100.4708 84° East 589 1091 10,668  Level Albuquerque Center
Thu 13:10:14 35.0983 -100.0322 85° East 586 1085 10,668  Level Albuquerque Center
Thu 13:11:16 35.1125 -99.8356 85° East 584 1081 10,668  Level Albuquerque Center
Thu 13:12:18 35.1261 -99.6394 85° East 582 1078 10,668  Level Albuquerque Center
Thu 13:13:20 35.1397 -99.4431 85° East 582 1078 10,668  Level Albuquerque Center
Thu 13:14:23 35.1539 -99.2469 85° East 581 1077 10,668  Level Albuquerque Center
Thu 13:15:25 35.1681 -99.0508 85° East 581 1077 10,668 86 Level Albuquerque Center
Thu 13:21:28 35.2420 -97.8240 85° East 572 1059 11,278 91 Climbing FlightAware ADS-B
Thu 13:22:08 35.2490 -97.6870 86° East 567 1049 11,278  Level FlightAware ADS-B
Thu 13:22:53 35.2570 -97.5480 86° East 570 1056 11,278  Level FlightAware ADS-B
Thu 13:23:28 35.2630 -97.4370 86° East 571 1057 11,278  Level FlightAware ADS-B
Thu 13:24:13 35.2710 -97.2820 86° East 568 1053 11,278  Level FlightAware ADS-B
Thu 13:24:53 35.2770 -97.1680 86° East 568 1053 11,278  Level FlightAware ADS-B
Thu 13:25:38 35.2840 -97.0100 87° East 564 1044 11,278  Level FlightAware ADS-B
Thu 13:26:23 35.2910 -96.8700 86° East 565 1046 11,278  Level FlightAware ADS-B
Thu 13:26:58 35.2970 -96.7590 86° East 566 1048 11,278  Level FlightAware ADS-B
Thu 13:27:43 35.3030 -96.6150 87° East 565 1046 11,278  Level FlightAware ADS-B
Thu 13:28:28 35.3100 -96.4680 87° East 563 1043 11,278  Level FlightAware ADS-B
Thu 13:29:08 35.3150 -96.3410 87° East 564 1044 11,278  Level FlightAware ADS-B
Thu 13:29:48 35.3210 -96.2130 87° East 565 1046 11,278  Level FlightAware ADS-B
Thu 13:30:33 35.3270 -96.0730 87° East 567 1049 11,278  Level FlightAware ADS-B
Thu 13:31:08 35.3320 -95.9600 87° East 569 1054 11,278  Level FlightAware ADS-B
Thu 13:31:53 35.3370 -95.8190 87° East 569 1054 11,278  Level FlightAware ADS-B
Thu 13:32:33 35.3420 -95.7100 87° East 569 1054 11,278  Level FlightAware ADS-B
Thu 13:33:13 35.3470 -95.6000 87° East 569 1054 11,278  Level FlightAware ADS-B
Thu 13:34:03 35.3530 -95.4630 87° East 569 1054 11,278  Level FlightAware ADS-B
Thu 13:34:43 35.3570 -95.3540 87° East 569 1054 11,278  Level FlightAware ADS-B
Thu 13:35:23 35.3620 -95.2440 87° East 569 1054 11,278  Level FlightAware ADS-B
Thu 13:36:03 35.3670 -95.1340 87° East 569 1054 11,278  Level FlightAware ADS-B
Thu 13:36:48 35.3710 -94.8730 89° East 564 1044 11,278  Level FlightAware ADS-B
Thu 13:37:28 35.3750 -94.7360 88° East 565 1046 11,278  Level FlightAware ADS-B
Thu 13:38:23 35.3800 -94.5640 88° East 561 1040 11,278  Level FlightAware ADS-B
Thu 13:39:08 35.3850 -94.4360 87° East 561 1040 11,278  Level FlightAware ADS-B
Thu 13:39:48 35.3900 -94.3280 87° East 561 1040 11,278  Level FlightAware ADS-B
Thu 13:40:28 35.3940 -94.2190 87° East 561 1040 11,278  Level FlightAware ADS-B
Thu 13:41:18 35.4000 -94.0840 87° East 561 1040 11,278  Level FlightAware ADS-B
Thu 13:41:58 35.4050 -93.9760 87° East 561 1040 11,278  Level FlightAware ADS-B
Thu 13:42:38 35.4090 -93.8680 87° East 561 1040 11,278  Level FlightAware ADS-B
Thu 13:43:18 35.4140 -93.7600 87° East 561 1040 11,278  Level FlightAware ADS-B
Thu 13:43:58 35.4190 -93.6520 87° East 561 1040 11,278  Level FlightAware ADS-B
Thu 13:44:38 35.4230 -93.5440 87° East 561 1040 11,278  Level FlightAware ADS-B
Thu 13:45:28 35.4290 -93.4080 87° East 561 1040 11,278  Level FlightAware ADS-B
Thu 13:46:08 35.4340 -93.3000 87° East 561 1040 11,278  Level FlightAware ADS-B
Thu 13:46:48 35.4380 -93.1920 87° East 561 1040 11,278  Level FlightAware ADS-B
Thu 13:47:28 35.4430 -93.0840 87° East 561 1040 11,278  Level FlightAware ADS-B
Thu 13:48:08 35.4470 -92.9760 87° East 561 1040 11,278 -590 Level FlightAware ADS-B
Thu 13:48:30 35.6592 -92.6975 87° East 551 1020 10,668 -587 Descending Memphis Center
Thu 13:49:29 35.6353 -92.5231 100° East 535 991 10,485 -246 Descending Memphis Center
Thu 13:50:29 35.5986 -92.3486 104° East 522 967 10,180 -457 Descending Memphis Center
Thu 13:51:29 35.5783 -92.1719 98° East 522 967 9,571 -945 Descending Memphis Center
Thu 13:52:29 35.5597 -91.9981 97° East 522 967 8,291 -975 Descending Memphis Center
Thu 13:53:29 35.5453 -91.8344 96° East 508 941 7,620 -488 Descending Memphis Center
Thu 13:54:29 35.5322 -91.6836 96° East 474 877 7,315 -427 Descending Memphis Center
Thu 13:55:29 35.5169 -91.5356 97° East 450 834 6,767 -762 Descending Memphis Center
Thu 13:56:29 35.4975 -91.3797 99° East 426 789 5,791 -853 Descending Memphis Center
Thu 13:57:29 35.4883 -91.2444 95° East 406 752 5,060 -625 Descending Memphis Center
Thu 13:58:29 35.4703 -91.1167 100° East 386 715 4,542 -472 Descending Memphis Center
Thu 13:59:29 35.4606 -91.0044 96° East 373 690 4,115 -472 Descending Memphis Center
Thu 14:00:29 35.4486 -90.8769 97° East 368 681 3,597 -396 Descending Memphis Center
Thu 14:01:29 35.4322 -90.7547 99° East 363 673 3,322 -274 Descending Memphis Center
Thu 14:02:29 35.4200 -90.6525 98° East 336 623 3,048 -305 Descending Memphis Center
Thu 14:03:29 35.4139 -90.5506 94° East 303 562 2,713 -366 Descending Memphis Center
Thu 14:04:29 35.4225 -90.4489 84° East 292 541 2,316 -351 Descending Memphis Center
Thu 14:05:29 35.4328 -90.3392 83° East 292 541 2,012 -244 Descending Memphis Center
Thu 14:06:29 35.4433 -90.2450 82° East 292 541 1,829 -122 Descending Memphis Center
Thu 14:07:29 35.4347 -90.1583 97° East 263 488 1,768 -198 Descending Memphis Center
Thu 14:08:29 35.4181 -90.0794 105° East 251 465 1,433 -168 Descending Memphis Center
Thu 14:09:29 35.3719 -90.0361 143° Southeast 208 385 1,433 -15 Level Memphis Center
Thu 14:10:29 35.3281 -89.9906 140° Southeast 208 385 1,402 -46 Descending Memphis Center
Thu 14:11:29 35.2800 -89.9806 170° South 184 341 1,341 -122 Descending Memphis Center
Thu 14:12:29 35.2300 -89.9783 178° South 184 341 1,158 -229 Descending Memphis Center
Thu 14:13:29 35.1800 -89.9786 180° South 178 330 884 -259 Descending Memphis Center
Thu 14:14:29 35.1381 -89.9761 177° South 178 330 640 -245 Descending Memphis Center
Thu 14:15:36 35.1000 -89.9667 169° South 120 222 366 -246 Descending KMEM
Thu 14:17:00 35.0424 -89.9767 129° Southeast  Level Estimated
Thu 14:24:00 35.0424 -89.9767 129° Southeast  Level Estimated
Thu 14:25:00 35.0424 -89.9767 129° Southeast  Level Estimated
Thu 14:26:00 35.0424 -89.9767 129° Southeast  Level Estimated
Thu 14:27:00 35.0424 -89.9767 129° Southeast  Level Estimated
Thu 14:28:00 35.0424 -89.9767 129° Southeast  Level Estimated
Thu 14:29:00 35.0424 -89.9767 129° Southeast  Level Estimated
Thu 14:30:00 35.0424 -89.9767 129° Southeast  Level Estimated

Login

Don't have an account? Register now (free) for customized features, flight alerts, and more!